sensor_id;sensor_type;location;lat;lon;timestamp;temperature;humidity
58447;DHT22;44240;51.840;7.258;2023-02-01T00:01:18;7.10;77.00
58447;DHT22;44240;51.840;7.258;2023-02-01T00:03:43;7.10;77.00
58447;DHT22;44240;51.840;7.258;2023-02-01T00:06:09;7.10;76.90
58447;DHT22;44240;51.840;7.258;2023-02-01T00:08:35;7.20;77.10
58447;DHT22;44240;51.840;7.258;2023-02-01T00:11:06;7.20;77.10
58447;DHT22;44240;51.840;7.258;2023-02-01T00:13:34;7.20;77.10
58447;DHT22;44240;51.840;7.258;2023-02-01T00:16:09;7.20;76.90
58447;DHT22;44240;51.840;7.258;2023-02-01T00:18:35;7.20;76.80
58447;DHT22;44240;51.840;7.258;2023-02-01T00:21:01;7.20;76.80
58447;DHT22;44240;51.840;7.258;2023-02-01T00:23:27;7.20;76.90
58447;DHT22;44240;51.840;7.258;2023-02-01T00:25:52;7.20;76.70
58447;DHT22;44240;51.840;7.258;2023-02-01T00:28:18;7.20;76.70
58447;DHT22;44240;51.840;7.258;2023-02-01T00:30:43;7.20;76.70
58447;DHT22;44240;51.840;7.258;2023-02-01T00:33:09;7.20;76.70
58447;DHT22;44240;51.840;7.258;2023-02-01T00:35:35;7.20;76.60
58447;DHT22;44240;51.840;7.258;2023-02-01T00:38:01;7.20;76.20
58447;DHT22;44240;51.840;7.258;2023-02-01T00:40:26;7.30;76.10
58447;DHT22;44240;51.840;7.258;2023-02-01T00:42:52;7.30;75.60
58447;DHT22;44240;51.840;7.258;2023-02-01T00:45:18;7.30;75.60
58447;DHT22;44240;51.840;7.258;2023-02-01T00:47:43;7.30;75.30
58447;DHT22;44240;51.840;7.258;2023-02-01T00:50:09;7.30;75.30
58447;DHT22;44240;51.840;7.258;2023-02-01T00:52:35;7.30;75.10
58447;DHT22;44240;51.840;7.258;2023-02-01T00:55:01;7.20;75.00
58447;DHT22;44240;51.840;7.258;2023-02-01T00:57:26;7.20;74.90
58447;DHT22;44240;51.840;7.258;2023-02-01T00:59:52;7.20;74.90
58447;DHT22;44240;51.840;7.258;2023-02-01T01:02:17;7.20;75.00
58447;DHT22;44240;51.840;7.258;2023-02-01T01:04:43;7.20;74.90
58447;DHT22;44240;51.840;7.258;2023-02-01T01:07:09;7.30;74.50
58447;DHT22;44240;51.840;7.258;2023-02-01T01:09:34;7.20;74.20
58447;DHT22;44240;51.840;7.258;2023-02-01T01:12:00;7.20;74.20
58447;DHT22;44240;51.840;7.258;2023-02-01T01:14:28;7.20;74.00
58447;DHT22;44240;51.840;7.258;2023-02-01T01:16:54;7.20;73.80
58447;DHT22;44240;51.840;7.258;2023-02-01T01:19:19;7.20;73.90
58447;DHT22;44240;51.840;7.258;2023-02-01T01:21:45;7.30;73.60
58447;DHT22;44240;51.840;7.258;2023-02-01T01:24:11;7.20;73.30
58447;DHT22;44240;51.840;7.258;2023-02-01T01:26:36;7.30;73.30
58447;DHT22;44240;51.840;7.258;2023-02-01T01:29:02;7.30;73.10
58447;DHT22;44240;51.840;7.258;2023-02-01T01:31:29;7.30;72.80
58447;DHT22;44240;51.840;7.258;2023-02-01T01:33:57;7.30;72.40
58447;DHT22;44240;51.840;7.258;2023-02-01T01:36:23;7.30;71.50
58447;DHT22;44240;51.840;7.258;2023-02-01T01:38:50;7.30;71.50
58447;DHT22;44240;51.840;7.258;2023-02-01T01:41:21;7.30;71.50
58447;DHT22;44240;51.840;7.258;2023-02-01T01:46:24;7.30;70.80
58447;DHT22;44240;51.840;7.258;2023-02-01T01:48:53;7.30;71.00
58447;DHT22;44240;51.840;7.258;2023-02-01T01:51:23;7.30;70.80
58447;DHT22;44240;51.840;7.258;2023-02-01T01:53:59;7.30;70.80
58447;DHT22;44240;51.840;7.258;2023-02-01T01:56:26;7.30;70.90
58447;DHT22;44240;51.840;7.258;2023-02-01T01:58:54;7.40;70.80
58447;DHT22;44240;51.840;7.258;2023-02-01T02:01:20;7.30;70.80
58447;DHT22;44240;51.840;7.258;2023-02-01T02:03:46;7.30;70.70
58447;DHT22;44240;51.840;7.258;2023-02-01T02:06:42;7.30;70.50
58447;DHT22;44240;51.840;7.258;2023-02-01T02:09:10;7.30;70.40
58447;DHT22;44240;51.840;7.258;2023-02-01T02:11:36;7.30;70.80
58447;DHT22;44240;51.840;7.258;2023-02-01T02:14:03;7.30;70.70
58447;DHT22;44240;51.840;7.258;2023-02-01T02:17:00;7.30;70.80
58447;DHT22;44240;51.840;7.258;2023-02-01T02:28:21;7.40;70.80
58447;DHT22;44240;51.840;7.258;2023-02-01T02:33:50;7.40;70.80
58447;DHT22;44240;51.840;7.258;2023-02-01T02:45:06;7.30;71.30
58447;DHT22;44240;51.840;7.258;2023-02-01T02:47:56;7.30;71.30
58447;DHT22;44240;51.840;7.258;2023-02-01T02:56:18;7.40;72.20
58447;DHT22;44240;51.840;7.258;2023-02-01T02:59:04;7.40;71.20
58447;DHT22;44240;51.840;7.258;2023-02-01T03:01:50;7.40;70.90
58447;DHT22;44240;51.840;7.258;2023-02-01T03:04:34;7.40;71.00
58447;DHT22;44240;51.840;7.258;2023-02-01T03:07:42;7.40;71.00
58447;DHT22;44240;51.840;7.258;2023-02-01T03:09:58;7.50;70.90
58447;DHT22;44240;51.840;7.258;2023-02-01T03:12:29;7.50;70.80
58447;DHT22;44240;51.840;7.258;2023-02-01T03:15:26;7.50;70.70
58447;DHT22;44240;51.840;7.258;2023-02-01T03:17:58;7.50;70.50
58447;DHT22;44240;51.840;7.258;2023-02-01T03:20:26;7.50;70.60
58447;DHT22;44240;51.840;7.258;2023-02-01T03:22:53;7.50;70.60
58447;DHT22;44240;51.840;7.258;2023-02-01T03:25:26;7.50;70.50
58447;DHT22;44240;51.840;7.258;2023-02-01T03:27:57;7.50;70.40
58447;DHT22;44240;51.840;7.258;2023-02-01T03:30:29;7.50;70.50
58447;DHT22;44240;51.840;7.258;2023-02-01T03:32:59;7.50;70.30
58447;DHT22;44240;51.840;7.258;2023-02-01T03:38:40;7.50;70.60
58447;DHT22;44240;51.840;7.258;2023-02-01T03:41:09;7.50;70.50
58447;DHT22;44240;51.840;7.258;2023-02-01T03:43:55;7.40;70.50
58447;DHT22;44240;51.840;7.258;2023-02-01T03:46:41;7.40;70.50
58447;DHT22;44240;51.840;7.258;2023-02-01T03:49:11;7.40;70.50
58447;DHT22;44240;51.840;7.258;2023-02-01T03:51:40;7.30;70.70
58447;DHT22;44240;51.840;7.258;2023-02-01T03:54:07;7.40;70.80
58447;DHT22;44240;51.840;7.258;2023-02-01T03:56:37;7.40;70.60
58447;DHT22;44240;51.840;7.258;2023-02-01T03:59:03;7.40;70.50
58447;DHT22;44240;51.840;7.258;2023-02-01T04:01:30;7.40;70.50
58447;DHT22;44240;51.840;7.258;2023-02-01T04:03:56;7.40;70.40
58447;DHT22;44240;51.840;7.258;2023-02-01T04:06:23;7.40;70.60
58447;DHT22;44240;51.840;7.258;2023-02-01T04:08:49;7.50;70.70
58447;DHT22;44240;51.840;7.258;2023-02-01T04:11:16;7.50;70.60
58447;DHT22;44240;51.840;7.258;2023-02-01T04:13:42;7.40;70.40
58447;DHT22;44240;51.840;7.258;2023-02-01T04:16:07;7.40;70.60
58447;DHT22;44240;51.840;7.258;2023-02-01T04:18:33;7.40;70.70
58447;DHT22;44240;51.840;7.258;2023-02-01T04:20:59;7.40;70.70
58447;DHT22;44240;51.840;7.258;2023-02-01T04:23:24;7.40;70.90
58447;DHT22;44240;51.840;7.258;2023-02-01T04:25:50;7.40;70.80
58447;DHT22;44240;51.840;7.258;2023-02-01T04:28:15;7.40;70.80
58447;DHT22;44240;51.840;7.258;2023-02-01T04:30:41;7.50;70.90
58447;DHT22;44240;51.840;7.258;2023-02-01T04:33:06;7.50;70.90
58447;DHT22;44240;51.840;7.258;2023-02-01T04:35:33;7.40;70.80
58447;DHT22;44240;51.840;7.258;2023-02-01T04:37:58;7.40;70.90
58447;DHT22;44240;51.840;7.258;2023-02-01T04:40:24;7.40;70.90
58447;DHT22;44240;51.840;7.258;2023-02-01T04:42:49;7.40;70.90
58447;DHT22;44240;51.840;7.258;2023-02-01T04:45:15;7.50;70.90
58447;DHT22;44240;51.840;7.258;2023-02-01T04:47:40;7.50;70.90
58447;DHT22;44240;51.840;7.258;2023-02-01T04:50:06;7.50;70.90
58447;DHT22;44240;51.840;7.258;2023-02-01T04:52:35;7.40;71.90
58447;DHT22;44240;51.840;7.258;2023-02-01T04:55:01;7.40;71.00
58447;DHT22;44240;51.840;7.258;2023-02-01T04:57:28;7.40;71.00
58447;DHT22;44240;51.840;7.258;2023-02-01T04:59:54;7.40;71.20
58447;DHT22;44240;51.840;7.258;2023-02-01T05:02:19;7.50;71.10
58447;DHT22;44240;51.840;7.258;2023-02-01T05:04:45;7.40;70.90
58447;DHT22;44240;51.840;7.258;2023-02-01T05:07:10;7.40;71.20
58447;DHT22;44240;51.840;7.258;2023-02-01T05:09:36;7.40;71.30
58447;DHT22;44240;51.840;7.258;2023-02-01T05:12:01;7.40;71.40
58447;DHT22;44240;51.840;7.258;2023-02-01T05:14:47;7.40;71.50
58447;DHT22;44240;51.840;7.258;2023-02-01T05:17:13;7.30;71.70
58447;DHT22;44240;51.840;7.258;2023-02-01T05:19:38;7.30;71.90
58447;DHT22;44240;51.840;7.258;2023-02-01T05:22:04;7.30;72.00
58447;DHT22;44240;51.840;7.258;2023-02-01T05:24:29;7.30;72.00
58447;DHT22;44240;51.840;7.258;2023-02-01T05:26:55;7.30;72.20
58447;DHT22;44240;51.840;7.258;2023-02-01T05:29:21;7.20;72.30
58447;DHT22;44240;51.840;7.258;2023-02-01T05:31:47;7.20;72.60
58447;DHT22;44240;51.840;7.258;2023-02-01T05:34:14;7.20;72.90
58447;DHT22;44240;51.840;7.258;2023-02-01T05:36:40;7.20;72.90
58447;DHT22;44240;51.840;7.258;2023-02-01T05:39:06;7.30;72.80
58447;DHT22;44240;51.840;7.258;2023-02-01T05:41:31;7.30;72.70
58447;DHT22;44240;51.840;7.258;2023-02-01T05:43:57;7.30;72.80
58447;DHT22;44240;51.840;7.258;2023-02-01T05:46:23;7.30;72.90
58447;DHT22;44240;51.840;7.258;2023-02-01T05:48:48;7.30;72.90
58447;DHT22;44240;51.840;7.258;2023-02-01T05:51:14;7.30;72.90
58447;DHT22;44240;51.840;7.258;2023-02-01T05:53:39;7.30;72.90
58447;DHT22;44240;51.840;7.258;2023-02-01T05:56:06;7.30;73.00
58447;DHT22;44240;51.840;7.258;2023-02-01T05:58:31;7.40;73.00
58447;DHT22;44240;51.840;7.258;2023-02-01T06:01:01;7.30;72.90
58447;DHT22;44240;51.840;7.258;2023-02-01T06:03:27;7.40;73.00
58447;DHT22;44240;51.840;7.258;2023-02-01T06:05:53;7.40;72.80
58447;DHT22;44240;51.840;7.258;2023-02-01T06:08:18;7.30;72.90
58447;DHT22;44240;51.840;7.258;2023-02-01T06:10:44;7.20;73.00
58447;DHT22;44240;51.840;7.258;2023-02-01T06:13:09;7.20;73.10
58447;DHT22;44240;51.840;7.258;2023-02-01T06:15:35;7.30;73.10
58447;DHT22;44240;51.840;7.258;2023-02-01T06:18:03;7.20;73.00
58447;DHT22;44240;51.840;7.258;2023-02-01T06:20:28;7.20;73.10
58447;DHT22;44240;51.840;7.258;2023-02-01T06:22:54;7.30;73.00
58447;DHT22;44240;51.840;7.258;2023-02-01T06:25:19;7.30;72.90
58447;DHT22;44240;51.840;7.258;2023-02-01T06:27:46;7.30;72.90
58447;DHT22;44240;51.840;7.258;2023-02-01T06:30:12;7.20;72.90
58447;DHT22;44240;51.840;7.258;2023-02-01T06:32:41;7.20;72.90
58447;DHT22;44240;51.840;7.258;2023-02-01T06:35:08;7.20;73.10
58447;DHT22;44240;51.840;7.258;2023-02-01T06:37:37;7.20;73.20
58447;DHT22;44240;51.840;7.258;2023-02-01T06:40:03;7.20;73.20
58447;DHT22;44240;51.840;7.258;2023-02-01T06:42:29;7.20;73.10
58447;DHT22;44240;51.840;7.258;2023-02-01T06:44:55;7.20;73.20
58447;DHT22;44240;51.840;7.258;2023-02-01T06:47:20;7.20;73.20
58447;DHT22;44240;51.840;7.258;2023-02-01T06:49:46;7.20;73.30
58447;DHT22;44240;51.840;7.258;2023-02-01T06:52:12;7.30;73.30
58447;DHT22;44240;51.840;7.258;2023-02-01T06:54:37;7.30;73.20
58447;DHT22;44240;51.840;7.258;2023-02-01T06:57:03;7.30;73.10
58447;DHT22;44240;51.840;7.258;2023-02-01T06:59:29;7.30;73.10
58447;DHT22;44240;51.840;7.258;2023-02-01T07:01:54;7.30;73.30
58447;DHT22;44240;51.840;7.258;2023-02-01T07:04:20;7.30;73.20
58447;DHT22;44240;51.840;7.258;2023-02-01T07:06:45;7.40;73.30
58447;DHT22;44240;51.840;7.258;2023-02-01T07:09:11;7.40;73.30
58447;DHT22;44240;51.840;7.258;2023-02-01T07:11:37;7.40;73.30
58447;DHT22;44240;51.840;7.258;2023-02-01T07:14:06;7.40;73.30
58447;DHT22;44240;51.840;7.258;2023-02-01T07:16:31;7.40;73.40
58447;DHT22;44240;51.840;7.258;2023-02-01T07:18:57;7.40;73.40
58447;DHT22;44240;51.840;7.258;2023-02-01T07:21:24;7.40;73.30
58447;DHT22;44240;51.840;7.258;2023-02-01T07:23:50;7.40;73.40
58447;DHT22;44240;51.840;7.258;2023-02-01T07:26:16;7.50;73.40
58447;DHT22;44240;51.840;7.258;2023-02-01T07:28:42;7.50;73.20
58447;DHT22;44240;51.840;7.258;2023-02-01T07:31:10;7.50;73.20
58447;DHT22;44240;51.840;7.258;2023-02-01T07:33:36;7.50;73.20
58447;DHT22;44240;51.840;7.258;2023-02-01T07:36:04;7.50;73.10
58447;DHT22;44240;51.840;7.258;2023-02-01T07:38:30;7.60;73.10
58447;DHT22;44240;51.840;7.258;2023-02-01T07:41:03;7.60;73.00
58447;DHT22;44240;51.840;7.258;2023-02-01T07:43:29;7.60;72.90
58447;DHT22;44240;51.840;7.258;2023-02-01T07:45:55;7.60;72.80
58447;DHT22;44240;51.840;7.258;2023-02-01T07:48:22;7.60;72.80
58447;DHT22;44240;51.840;7.258;2023-02-01T07:50:48;7.70;72.90
58447;DHT22;44240;51.840;7.258;2023-02-01T07:53:14;7.60;72.80
58447;DHT22;44240;51.840;7.258;2023-02-01T07:55:40;7.70;72.80
58447;DHT22;44240;51.840;7.258;2023-02-01T07:58:05;7.70;72.80
58447;DHT22;44240;51.840;7.258;2023-02-01T08:00:31;7.70;72.80
58447;DHT22;44240;51.840;7.258;2023-02-01T08:03:15;7.70;72.60
58447;DHT22;44240;51.840;7.258;2023-02-01T08:05:41;7.70;72.70
58447;DHT22;44240;51.840;7.258;2023-02-01T08:08:06;7.80;72.60
58447;DHT22;44240;51.840;7.258;2023-02-01T08:10:32;7.80;72.40
58447;DHT22;44240;51.840;7.258;2023-02-01T08:12:59;7.80;72.30
58447;DHT22;44240;51.840;7.258;2023-02-01T08:15:26;7.80;72.10
58447;DHT22;44240;51.840;7.258;2023-02-01T08:17:53;7.90;72.00
58447;DHT22;44240;51.840;7.258;2023-02-01T08:20:20;7.90;72.10
58447;DHT22;44240;51.840;7.258;2023-02-01T08:22:49;7.90;71.80
58447;DHT22;44240;51.840;7.258;2023-02-01T08:25:15;7.90;72.00
58447;DHT22;44240;51.840;7.258;2023-02-01T08:27:40;7.90;71.80
58447;DHT22;44240;51.840;7.258;2023-02-01T08:30:06;7.90;71.90
58447;DHT22;44240;51.840;7.258;2023-02-01T08:32:33;7.90;71.90
58447;DHT22;44240;51.840;7.258;2023-02-01T08:34:59;8.00;71.80
58447;DHT22;44240;51.840;7.258;2023-02-01T08:37:24;8.00;71.80
58447;DHT22;44240;51.840;7.258;2023-02-01T08:39:50;8.00;71.80
58447;DHT22;44240;51.840;7.258;2023-02-01T08:42:16;8.00;71.80
58447;DHT22;44240;51.840;7.258;2023-02-01T08:45:01;8.00;71.90
58447;DHT22;44240;51.840;7.258;2023-02-01T08:47:27;8.00;71.80
58447;DHT22;44240;51.840;7.258;2023-02-01T08:49:53;8.00;71.70
58447;DHT22;44240;51.840;7.258;2023-02-01T08:52:19;8.00;71.70
58447;DHT22;44240;51.840;7.258;2023-02-01T08:54:45;8.00;71.90
58447;DHT22;44240;51.840;7.258;2023-02-01T08:57:10;8.00;71.80
58447;DHT22;44240;51.840;7.258;2023-02-01T08:59:36;8.00;71.70
58447;DHT22;44240;51.840;7.258;2023-02-01T09:02:01;8.00;71.80
58447;DHT22;44240;51.840;7.258;2023-02-01T09:04:27;8.00;71.60
58447;DHT22;44240;51.840;7.258;2023-02-01T09:06:52;8.00;71.70
58447;DHT22;44240;51.840;7.258;2023-02-01T09:09:21;8.10;71.70
58447;DHT22;44240;51.840;7.258;2023-02-01T09:11:47;8.20;71.40
58447;DHT22;44240;51.840;7.258;2023-02-01T09:14:12;8.20;71.30
58447;DHT22;44240;51.840;7.258;2023-02-01T09:16:38;8.20;71.20
58447;DHT22;44240;51.840;7.258;2023-02-01T09:19:03;8.30;71.60
58447;DHT22;44240;51.840;7.258;2023-02-01T09:21:29;8.30;71.10
58447;DHT22;44240;51.840;7.258;2023-02-01T09:23:55;8.30;70.90
58447;DHT22;44240;51.840;7.258;2023-02-01T09:26:20;8.30;70.70
58447;DHT22;44240;51.840;7.258;2023-02-01T09:28:46;8.30;70.90
58447;DHT22;44240;51.840;7.258;2023-02-01T09:31:11;8.40;70.80
58447;DHT22;44240;51.840;7.258;2023-02-01T09:33:37;8.50;70.50
58447;DHT22;44240;51.840;7.258;2023-02-01T09:36:04;8.50;70.30
58447;DHT22;44240;51.840;7.258;2023-02-01T09:38:30;8.50;70.50
58447;DHT22;44240;51.840;7.258;2023-02-01T09:40:56;8.60;70.10
58447;DHT22;44240;51.840;7.258;2023-02-01T09:43:41;8.60;70.20
58447;DHT22;44240;51.840;7.258;2023-02-01T09:46:23;8.70;70.00
58447;DHT22;44240;51.840;7.258;2023-02-01T09:48:53;8.70;69.60
58447;DHT22;44240;51.840;7.258;2023-02-01T09:51:25;8.80;69.70
58447;DHT22;44240;51.840;7.258;2023-02-01T09:54:03;8.80;69.70
58447;DHT22;44240;51.840;7.258;2023-02-01T09:56:35;8.80;69.60
58447;DHT22;44240;51.840;7.258;2023-02-01T10:01:51;8.90;68.80
58447;DHT22;44240;51.840;7.258;2023-02-01T10:04:17;8.90;68.80
58447;DHT22;44240;51.840;7.258;2023-02-01T10:07:06;8.80;68.80
58447;DHT22;44240;51.840;7.258;2023-02-01T10:12:25;8.90;69.40
58447;DHT22;44240;51.840;7.258;2023-02-01T10:17:56;8.90;69.40
58447;DHT22;44240;51.840;7.258;2023-02-01T10:28:39;8.80;69.60
58447;DHT22;44240;51.840;7.258;2023-02-01T10:31:08;8.70;69.60
58447;DHT22;44240;51.840;7.258;2023-02-01T10:33:39;8.70;69.90
58447;DHT22;44240;51.840;7.258;2023-02-01T10:36:20;8.70;69.80
58447;DHT22;44240;51.840;7.258;2023-02-01T10:38:47;8.70;70.10
58447;DHT22;44240;51.840;7.258;2023-02-01T10:41:19;8.60;70.00
58447;DHT22;44240;51.840;7.258;2023-02-01T10:43:48;8.60;70.40
58447;DHT22;44240;51.840;7.258;2023-02-01T10:46:16;8.60;70.30
58447;DHT22;44240;51.840;7.258;2023-02-01T10:48:42;8.60;70.60
58447;DHT22;44240;51.840;7.258;2023-02-01T10:51:16;8.60;70.30
58447;DHT22;44240;51.840;7.258;2023-02-01T10:54:02;8.60;70.50
58447;DHT22;44240;51.840;7.258;2023-02-01T10:56:29;8.70;70.50
58447;DHT22;44240;51.840;7.258;2023-02-01T10:59:02;8.70;70.30
58447;DHT22;44240;51.840;7.258;2023-02-01T11:01:33;8.70;70.50
58447;DHT22;44240;51.840;7.258;2023-02-01T11:04:01;8.60;70.50
58447;DHT22;44240;51.840;7.258;2023-02-01T11:06:47;8.70;70.60
58447;DHT22;44240;51.840;7.258;2023-02-01T11:09:22;8.70;70.30
58447;DHT22;44240;51.840;7.258;2023-02-01T11:14:15;8.70;70.50
58447;DHT22;44240;51.840;7.258;2023-02-01T11:16:47;8.70;70.50
58447;DHT22;44240;51.840;7.258;2023-02-01T11:19:16;8.70;70.50
58447;DHT22;44240;51.840;7.258;2023-02-01T11:21:42;8.70;70.60
58447;DHT22;44240;51.840;7.258;2023-02-01T11:24:29;8.70;70.60
58447;DHT22;44240;51.840;7.258;2023-02-01T11:27:00;8.70;70.40
58447;DHT22;44240;51.840;7.258;2023-02-01T11:29:35;8.70;70.50
58447;DHT22;44240;51.840;7.258;2023-02-01T11:32:02;8.70;70.50
58447;DHT22;44240;51.840;7.258;2023-02-01T11:34:58;8.70;70.50
58447;DHT22;44240;51.840;7.258;2023-02-01T11:37:39;8.80;70.20
58447;DHT22;44240;51.840;7.258;2023-02-01T11:40:34;8.70;70.50
58447;DHT22;44240;51.840;7.258;2023-02-01T11:43:08;8.70;70.80
58447;DHT22;44240;51.840;7.258;2023-02-01T11:45:35;8.60;71.50
58447;DHT22;44240;51.840;7.258;2023-02-01T11:48:14;8.50;72.20
58447;DHT22;44240;51.840;7.258;2023-02-01T11:50:47;8.50;72.90
58447;DHT22;44240;51.840;7.258;2023-02-01T11:59:15;8.40;74.30
58447;DHT22;44240;51.840;7.258;2023-02-01T12:05:13;8.40;74.70
58447;DHT22;44240;51.840;7.258;2023-02-01T12:13:32;8.30;76.00
58447;DHT22;44240;51.840;7.258;2023-02-01T12:16:16;8.30;76.30
58447;DHT22;44240;51.840;7.258;2023-02-01T12:22:18;8.20;76.60
58447;DHT22;44240;51.840;7.258;2023-02-01T12:25:14;8.10;77.10
58447;DHT22;44240;51.840;7.258;2023-02-01T12:31:15;8.20;77.20
58447;DHT22;44240;51.840;7.258;2023-02-01T12:34:20;8.20;77.00
58447;DHT22;44240;51.840;7.258;2023-02-01T12:39:32;8.20;77.20
58447;DHT22;44240;51.840;7.258;2023-02-01T12:42:21;8.20;77.30
58447;DHT22;44240;51.840;7.258;2023-02-01T12:45:09;8.20;77.20
58447;DHT22;44240;51.840;7.258;2023-02-01T12:47:49;8.10;78.20
58447;DHT22;44240;51.840;7.258;2023-02-01T12:50:20;8.10;77.30
58447;DHT22;44240;51.840;7.258;2023-02-01T12:52:51;8.10;77.50
58447;DHT22;44240;51.840;7.258;2023-02-01T12:55:20;8.10;77.70
58447;DHT22;44240;51.840;7.258;2023-02-01T12:58:39;8.10;77.90
58447;DHT22;44240;51.840;7.258;2023-02-01T13:00:49;8.20;77.90
58447;DHT22;44240;51.840;7.258;2023-02-01T13:06:16;8.20;77.40
58447;DHT22;44240;51.840;7.258;2023-02-01T13:08:57;8.20;77.20
58447;DHT22;44240;51.840;7.258;2023-02-01T13:11:35;8.30;77.30
58447;DHT22;44240;51.840;7.258;2023-02-01T13:16:49;8.30;76.50
58447;DHT22;44240;51.840;7.258;2023-02-01T13:22:23;8.40;75.70
58447;DHT22;44240;51.840;7.258;2023-02-01T13:25:10;8.40;75.70
58447;DHT22;44240;51.840;7.258;2023-02-01T13:27:37;8.40;75.50
58447;DHT22;44240;51.840;7.258;2023-02-01T13:30:16;8.50;75.50
58447;DHT22;44240;51.840;7.258;2023-02-01T13:36:03;8.60;75.30
58447;DHT22;44240;51.840;7.258;2023-02-01T13:41:41;8.70;75.30
58447;DHT22;44240;51.840;7.258;2023-02-01T13:44:19;8.70;75.30
58447;DHT22;44240;51.840;7.258;2023-02-01T13:46:47;8.70;74.90
58447;DHT22;44240;51.840;7.258;2023-02-01T13:49:22;8.70;75.00
58447;DHT22;44240;51.840;7.258;2023-02-01T13:51:51;8.80;75.20
58447;DHT22;44240;51.840;7.258;2023-02-01T13:54:29;8.80;75.00
58447;DHT22;44240;51.840;7.258;2023-02-01T13:56:55;8.90;75.00
58447;DHT22;44240;51.840;7.258;2023-02-01T13:59:51;8.90;74.50
58447;DHT22;44240;51.840;7.258;2023-02-01T14:02:36;8.90;74.30
58447;DHT22;44240;51.840;7.258;2023-02-01T14:05:03;8.90;74.50
58447;DHT22;44240;51.840;7.258;2023-02-01T14:07:28;8.80;75.00
58447;DHT22;44240;51.840;7.258;2023-02-01T14:09:54;8.80;75.20
58447;DHT22;44240;51.840;7.258;2023-02-01T14:17:47;8.80;75.50
58447;DHT22;44240;51.840;7.258;2023-02-01T14:20:41;8.80;75.60
58447;DHT22;44240;51.840;7.258;2023-02-01T14:23:13;8.80;75.90
58447;DHT22;44240;51.840;7.258;2023-02-01T14:25:40;8.80;76.00
58447;DHT22;44240;51.840;7.258;2023-02-01T14:28:26;8.70;75.80
58447;DHT22;44240;51.840;7.258;2023-02-01T14:30:54;8.70;76.10
58447;DHT22;44240;51.840;7.258;2023-02-01T14:33:23;8.70;76.40
58447;DHT22;44240;51.840;7.258;2023-02-01T14:36:08;8.70;76.50
58447;DHT22;44240;51.840;7.258;2023-02-01T14:38:36;8.70;76.80
58447;DHT22;44240;51.840;7.258;2023-02-01T14:43:50;8.70;77.40
58447;DHT22;44240;51.840;7.258;2023-02-01T14:46:16;8.70;77.40
58447;DHT22;44240;51.840;7.258;2023-02-01T14:48:44;8.70;77.00
58447;DHT22;44240;51.840;7.258;2023-02-01T14:51:14;8.70;77.40
58447;DHT22;44240;51.840;7.258;2023-02-01T14:53:41;8.70;76.90
58447;DHT22;44240;51.840;7.258;2023-02-01T14:56:13;8.70;76.90
58447;DHT22;44240;51.840;7.258;2023-02-01T14:59:00;8.70;77.30
58447;DHT22;44240;51.840;7.258;2023-02-01T15:04:13;8.70;76.70
58447;DHT22;44240;51.840;7.258;2023-02-01T15:06:49;8.70;76.30
58447;DHT22;44240;51.840;7.258;2023-02-01T15:09:28;8.80;76.30
58447;DHT22;44240;51.840;7.258;2023-02-01T15:12:05;8.80;76.10
58447;DHT22;44240;51.840;7.258;2023-02-01T15:14:46;8.80;75.90
58447;DHT22;44240;51.840;7.258;2023-02-01T15:17:20;8.80;75.70
58447;DHT22;44240;51.840;7.258;2023-02-01T15:20:14;8.80;75.30
58447;DHT22;44240;51.840;7.258;2023-02-01T15:22:41;8.90;75.00
58447;DHT22;44240;51.840;7.258;2023-02-01T15:25:19;8.90;74.60
58447;DHT22;44240;51.840;7.258;2023-02-01T15:27:45;8.90;74.40
58447;DHT22;44240;51.840;7.258;2023-02-01T15:30:23;8.90;74.60
58447;DHT22;44240;51.840;7.258;2023-02-01T15:32:51;8.90;74.50
58447;DHT22;44240;51.840;7.258;2023-02-01T15:35:42;8.90;74.00
58447;DHT22;44240;51.840;7.258;2023-02-01T15:41:08;8.80;73.80
58447;DHT22;44240;51.840;7.258;2023-02-01T15:46:35;8.80;74.10
58447;DHT22;44240;51.840;7.258;2023-02-01T15:49:01;8.80;74.50
58447;DHT22;44240;51.840;7.258;2023-02-01T15:51:30;8.80;74.50
58447;DHT22;44240;51.840;7.258;2023-02-01T15:54:04;8.80;74.70
58447;DHT22;44240;51.840;7.258;2023-02-01T15:56:35;8.80;75.00
58447;DHT22;44240;51.840;7.258;2023-02-01T15:59:05;8.70;75.50
58447;DHT22;44240;51.840;7.258;2023-02-01T16:01:36;8.70;75.90
58447;DHT22;44240;51.840;7.258;2023-02-01T16:04:26;8.80;76.20
58447;DHT22;44240;51.840;7.258;2023-02-01T16:07:00;8.70;76.20
58447;DHT22;44240;51.840;7.258;2023-02-01T16:09:40;8.70;76.40
58447;DHT22;44240;51.840;7.258;2023-02-01T16:15:06;8.80;76.30
58447;DHT22;44240;51.840;7.258;2023-02-01T16:17:32;8.80;76.50
58447;DHT22;44240;51.840;7.258;2023-02-01T16:19:57;8.80;76.70
58447;DHT22;44240;51.840;7.258;2023-02-01T16:22:24;8.80;76.80
58447;DHT22;44240;51.840;7.258;2023-02-01T16:24:50;8.80;76.80
58447;DHT22;44240;51.840;7.258;2023-02-01T16:27:15;8.80;76.70
58447;DHT22;44240;51.840;7.258;2023-02-01T16:29:41;8.70;76.60
58447;DHT22;44240;51.840;7.258;2023-02-01T16:32:18;8.60;76.70
58447;DHT22;44240;51.840;7.258;2023-02-01T16:34:45;8.70;77.00
58447;DHT22;44240;51.840;7.258;2023-02-01T16:37:20;8.60;77.40
58447;DHT22;44240;51.840;7.258;2023-02-01T16:39:46;8.60;77.40
58447;DHT22;44240;51.840;7.258;2023-02-01T16:42:13;8.60;77.40
58447;DHT22;44240;51.840;7.258;2023-02-01T16:44:39;8.50;77.50
58447;DHT22;44240;51.840;7.258;2023-02-01T16:47:15;8.40;77.50
58447;DHT22;44240;51.840;7.258;2023-02-01T16:49:42;8.40;77.10
58447;DHT22;44240;51.840;7.258;2023-02-01T16:52:16;8.30;77.60
58447;DHT22;44240;51.840;7.258;2023-02-01T16:54:42;8.30;77.70
58447;DHT22;44240;51.840;7.258;2023-02-01T16:57:13;8.20;77.40
58447;DHT22;44240;51.840;7.258;2023-02-01T16:59:39;8.20;77.70
58447;DHT22;44240;51.840;7.258;2023-02-01T17:02:05;8.10;77.20
58447;DHT22;44240;51.840;7.258;2023-02-01T17:04:31;8.00;77.30
58447;DHT22;44240;51.840;7.258;2023-02-01T17:06:56;7.90;77.40
58447;DHT22;44240;51.840;7.258;2023-02-01T17:09:23;7.90;77.80
58447;DHT22;44240;51.840;7.258;2023-02-01T17:11:50;7.90;78.00
58447;DHT22;44240;51.840;7.258;2023-02-01T17:14:18;7.90;78.10
58447;DHT22;44240;51.840;7.258;2023-02-01T17:16:45;7.90;78.20
58447;DHT22;44240;51.840;7.258;2023-02-01T17:19:20;7.90;78.30
58447;DHT22;44240;51.840;7.258;2023-02-01T17:21:49;8.00;78.40
58447;DHT22;44240;51.840;7.258;2023-02-01T17:24:18;7.90;78.50
58447;DHT22;44240;51.840;7.258;2023-02-01T17:26:44;7.90;78.50
58447;DHT22;44240;51.840;7.258;2023-02-01T17:29:10;7.80;78.50
58447;DHT22;44240;51.840;7.258;2023-02-01T17:31:40;7.80;78.50
58447;DHT22;44240;51.840;7.258;2023-02-01T17:34:08;7.80;78.60
58447;DHT22;44240;51.840;7.258;2023-02-01T17:36:34;7.80;78.60
58447;DHT22;44240;51.840;7.258;2023-02-01T17:39:01;7.80;78.60
58447;DHT22;44240;51.840;7.258;2023-02-01T17:41:26;7.80;78.40
58447;DHT22;44240;51.840;7.258;2023-02-01T17:43:53;7.70;78.40
58447;DHT22;44240;51.840;7.258;2023-02-01T17:46:19;7.70;78.60
58447;DHT22;44240;51.840;7.258;2023-02-01T17:48:45;7.70;78.70
58447;DHT22;44240;51.840;7.258;2023-02-01T17:51:15;7.70;78.80
58447;DHT22;44240;51.840;7.258;2023-02-01T17:53:41;7.70;78.90